Flight Track Log - Related Links

Times and Time Zones

All times are in EST time to prevent confusion due to time zone crossing. See the ASQ4577 flight status page for this flight to view local times or setup timezone preferences in your user account.

Time Position Orientation Groundspeed Altitude Reporting Facility
EST Latitude Longitude Course Direction KTS MPH feet Rate Location/Type
Sun 10:08:14 AM 35.2289 -80.9572 North 160 184 1,300  Level Atlanta Center
Sun 10:09:22 AM 35.2800 -80.9958 328° Northwest 214 246 3,400 1,860 Climbing Atlanta Center
Sun 10:10:23 AM 35.3467 -80.9986 358° North 272 313 5,300 2,143 Climbing Atlanta Center
Sun 10:11:00 AM 35.5016 -80.9417 13° North  Level FlightAware Approximate
Sun 10:11:42 AM 35.4358 -80.9722 14° North 453 521 8,400  Level Atlanta Center
Sun 10:12:00 AM 35.6024 -80.9121 13° North  Level FlightAware Approximate
Sun 10:12:42 AM 35.5125 -80.9464 15° North 363 418 10,100  Level Atlanta Center
Sun 10:13:00 AM 35.7033 -80.8828 North  Level FlightAware Approximate
Sun 10:13:42 AM 35.5994 -80.9203 14° North 330 380 10,900  Level Atlanta Center
Sun 10:14:42 AM 35.7028 -80.8908 13° North 337 388 12,300 1,450 Climbing Atlanta Center
Sun 10:15:42 AM 35.8014 -80.9047 353° North 343 395 13,800 1,400 Climbing Atlanta Center
Sun 10:16:42 AM 35.8958 -80.9319 347° North 348 400 15,100 1,150 Climbing Atlanta Center
Sun 10:17:42 AM 35.9950 -80.9692 343° North 365 420 16,100 1,000 Climbing Atlanta Center
Sun 10:18:42 AM 36.0917 -81.0042 344° North 370 426 17,100 850 Climbing Atlanta Center
Sun 10:19:42 AM 36.1883 -81.0339 346° North 365 420 17,800 850 Climbing Atlanta Center
Sun 10:20:42 AM 36.2892 -81.0661 346° North 365 420 18,800 1,000 Climbing Atlanta Center
Sun 10:21:42 AM 36.3922 -81.1011 345° North 365 420 19,800 1,000 Climbing Atlanta Center
Sun 10:22:42 AM 36.4972 -81.1333 346° North 375 432 20,800 1,000 Climbing Atlanta Center
Sun 10:23:42 AM 36.5983 -81.1711 343° North 375 432 21,800 950 Climbing Atlanta Center
Sun 10:24:42 AM 36.7033 -81.2061 345° North 382 440 22,700 900 Climbing Atlanta Center
Sun 10:25:42 AM 36.8083 -81.2386 346° North 396 456 23,600 984 Climbing Atlanta Center
Sun 10:27:51 AM 37.0278 -81.3122 345° North 391 450 25,800 1,068 Climbing Indianapolis Center
Sun 10:28:53 AM 37.1472 -81.3525 345° North 381 438 27,000 1,073 Climbing Indianapolis Center
Sun 10:29:54 AM 37.2506 -81.3875 345° North 381 438 28,000 878 Climbing Indianapolis Center
Sun 10:30:56 AM 37.3392 -81.4183 345° North 374 430 28,800 968 Climbing Indianapolis Center
Sun 10:31:58 AM 37.4575 -81.4597 344° North 375 432 30,000 1,016 Climbing Indianapolis Center
Sun 10:33:00 AM 37.5542 -81.4931 345° North 371 427 30,900 878 Climbing Indianapolis Center
Sun 10:34:01 AM 37.6519 -81.5269 345° North 376 433 31,800 537 Climbing Indianapolis Center
Sun 10:35:03 AM 37.7733 -81.5683 345° North 387 445 32,000 97 Climbing Indianapolis Center
Sun 10:36:05 AM 37.8847 -81.6078 344° North 405 466 32,000  Level Indianapolis Center
Sun 10:37:06 AM 37.9969 -81.6456 345° North 413 475 32,000  Level Indianapolis Center
Sun 10:38:08 AM 38.1075 -81.6847 344° North 411 473 32,000  Level Indianapolis Center
Sun 10:39:10 AM 38.2158 -81.7233 344° North 404 465 32,000  Level Indianapolis Center
Sun 10:40:12 AM 38.3256 -81.7611 345° North 405 466 32,000  Level Indianapolis Center
Sun 10:41:13 AM 38.4375 -81.7847 351° North 405 466 32,000  Level Indianapolis Center
Sun 10:42:15 AM 38.5500 -81.8042 352° North 404 465 32,000  Level Indianapolis Center
Sun 10:43:17 AM 38.6625 -81.8219 353° North 400 460 32,000  Level Indianapolis Center
Sun 10:44:18 AM 38.7747 -81.8406 353° North 399 459 32,000  Level Indianapolis Center
Sun 10:45:20 AM 38.8856 -81.8592 353° North 397 457 32,000  Level Indianapolis Center
Sun 10:46:22 AM 38.9956 -81.8775 353° North 397 457 32,000  Level Indianapolis Center
Sun 10:47:23 AM 39.1283 -81.9006 352° North 397 457 32,000  Level Indianapolis Center
Sun 10:48:25 AM 39.2392 -81.9181 353° North 399 459 32,000 -435 Level Indianapolis Center
Sun 10:49:27 AM 39.3486 -81.9364 353° North 396 456 31,100 -927 Descending Indianapolis Center
Sun 10:50:28 AM 39.4581 -81.9547 353° North 394 453 30,100 -976 Descending Indianapolis Center
Sun 10:51:30 AM 39.5667 -81.9742 352° North 393 452 29,100 -968 Descending Indianapolis Center
Sun 10:52:32 AM 39.6775 -81.9942 352° North 398 458 28,100 -1,073 Descending Indianapolis Center
Sun 10:53:33 AM 39.7869 -82.0114 353° North 399 459 26,900 -1,512 Descending Indianapolis Center
Sun 10:54:35 AM 39.8997 -82.0306 353° North 407 468 25,000 -1,742 Descending Indianapolis Center
Sun 10:55:37 AM 40.0333 -82.0536 352° North 404 465 23,300 -1,561 Descending Indianapolis Center
Sun 10:56:38 AM 40.1411 -82.0719 353° North 395 455 21,800 -1,512 Descending Indianapolis Center
Sun 10:57:40 AM 40.2514 -82.0903 353° North 379 436 20,200 -1,512 Descending Indianapolis Center
Sun 10:58:41 AM 40.3511 -82.1078 352° North 361 415 18,700 -1,317 Descending Indianapolis Center
Sun 10:59:43 AM 40.4506 -82.1192 355° North 357 411 17,500 -1,258 Descending Indianapolis Center
Sun 11:00:45 AM 40.5411 -82.0433 32° Northeast 388 447 16,100 -1,268 Descending Indianapolis Center
Sun 11:01:46 AM 40.6289 -81.9569 37° Northeast 393 452 14,900 -1,364 Descending Indianapolis Center
Sun 11:02:35 AM 40.7003 -81.8839 38° Northeast 386 444 13,600 -1,548 Descending Cleveland Center
Sun 11:02:48 AM 40.7219 -81.8664 31° Northeast 380 437 13,300 -1,548 Descending Cleveland Center
Sun 11:03:06 AM 40.7475 -81.8403 38° Northeast 376 433 12,800 -1,375 Descending Cleveland Center
Sun 11:03:36 AM 40.7847 -81.7989 40° Northeast 381 438 12,200 -1,377 Descending Cleveland Center
Sun 11:04:07 AM 40.8331 -81.7544 35° Northeast 381 438 11,400 -1,452 Descending Cleveland Center
Sun 11:04:38 AM 40.8694 -81.7147 40° Northeast 380 437 10,700 -1,279 Descending Cleveland Center
Sun 11:05:08 AM 40.9164 -81.6708 35° Northeast 376 433 10,100 -689 Descending Cleveland Center
Sun 11:05:39 AM 40.9519 -81.6350 37° Northeast 368 423 10,000 -111 Descending Cleveland Center
Sun 11:06:02 AM 40.9928 -81.6389 356° North 314 361 10,000  Level Cleveland Center
Sun 11:06:41 AM 41.0358 -81.6536 346° North 310 357 10,000  Level Cleveland Center
Sun 11:07:43 AM 41.1192 -81.6867 343° North 308 354 10,000  Level Cleveland Center
Sun 11:08:04 AM 41.1506 -81.7028 339° North 272 313 10,000 -492 Level Cleveland Center
Sun 11:08:44 AM 41.1864 -81.7114 350° North 245 282 9,500 -1,100 Descending Cleveland Center
Sun 11:09:04 AM 41.2117 -81.7236 340° North 220 253 8,900 -1,355 Descending Cleveland Center
Sun 11:09:46 AM 41.2492 -81.7364 346° North 233 268 8,100 -1,377 Descending Cleveland Center
Sun 11:10:05 AM 41.2744 -81.7506 337° Northwest 234 269 7,500 -1,082 Descending Cleveland Center
Sun 11:10:47 AM 41.3114 -81.7631 346° North 228 262 7,000 -492 Descending Cleveland Center
Sun 11:11:06 AM 41.3336 -81.7461 30° Northeast 241 277 7,000  Level Cleveland Center
Sun 11:11:49 AM 41.3636 -81.7100 42° Northeast 228 262 7,000  Level Cleveland Center
Sun 11:12:00 AM 41.3758 -81.6972 38° Northeast 206 237 7,000 -393 Level Cleveland Center
Sun 11:12:50 AM 41.4072 -81.6586 43° Northeast 206 237 6,600 -590 Descending Cleveland Center
Sun 11:13:01 AM 41.4181 -81.6481 36° Northeast 218 251 6,400 -871 Descending Cleveland Center
Sun 11:13:52 AM 41.4531 -81.6064 42° Northeast 211 243 5,700 -800 Descending Cleveland Center
Sun 11:14:01 AM 41.4661 -81.6056 North 200 230 5,600 -1,082 Descending Cleveland Center
Sun 11:14:53 AM 41.4878 -81.6372 312° West 176 203 4,600 -1,377 Descending Cleveland Center
Sun 11:15:02 AM 41.4953 -81.6522 304° West 142 163 4,200 -968 Descending Cleveland Center
Sun 11:15:55 AM 41.4928 -81.6875 265° West 156 180 3,600 -787 Descending Cleveland Center
Sun 11:16:03 AM 41.4906 -81.7044 260° West 145 167 3,400 -689 Descending Cleveland Center
Sun 11:16:56 AM 41.4767 -81.7486 247° West 151 174 2,900 -700 Descending Cleveland Center
Sun 11:17:03 AM 41.4736 -81.7547 236° Southwest 155 178 2,700 -984 Descending Cleveland Center
Sun 11:17:57 AM 41.4508 -81.7869 227° Southwest 140 161 1,900 -787 Descending Cleveland Center
Sun 11:18:04 AM 41.4511 -81.7931 273° West 124 143 1,900 -581 Level Cleveland Center
Sun 11:18:59 AM 41.4306 -81.8217 226° Southwest 125 144 1,300 -600 Descending Cleveland Center
Sun 11:19:04 AM 41.4289 -81.8283 252° West 121 139 1,300 -393 Level Cleveland Center
Sun 11:20:00 AM 41.4086 -81.8553 225° Southwest 124 143 900 -429 Descending Cleveland Center

Login

Don't have an account? Register now (free) for customized features, flight alerts, and more!